Omaha, Arkansas
Current Conditions -  °F | °C
As of 11:45 AM on Tuesday 21 Oct 2014 (Local Time) from KBBG Reporting Station
Clear Clear  
Wind Chill: 23°   Ceiling: Unl
Heat Index: 23°   Visibility: 10mi
Dew Point: 15°   Wind: 0mph
Humidity: 61%   Direction: NA
Pressure: 30.16"   Gusts: NA
Location:  36.45°N, 93.19°W
Report Text: KBBG 211645Z 00000KT 10SM SKC 23/15 A3016
Loading
Personal Weather Stations






























Interactive Weather Map
Tropical Storm Tracking
New forecast layout! Learn more

10-Day Weather Forecast

Advertisements
Track Severe Weather on mobile